sensor_id;sensor_type;location;lat;lon;timestamp;P1;durP1;ratioP1;P2;durP2;ratioP2
38779;SDS011;29273;49.962;9.768;2023-12-04T00:01:57;13.00;;;8.93;;
38779;SDS011;29273;49.962;9.768;2023-12-04T00:04:23;15.30;;;10.07;;
38779;SDS011;29273;49.962;9.768;2023-12-04T00:06:49;14.48;;;8.95;;
38779;SDS011;29273;49.962;9.768;2023-12-04T00:09:14;13.95;;;9.30;;
38779;SDS011;29273;49.962;9.768;2023-12-04T00:11:39;14.43;;;9.93;;
38779;SDS011;29273;49.962;9.768;2023-12-04T00:14:05;16.77;;;10.27;;
38779;SDS011;29273;49.962;9.768;2023-12-04T00:16:33;13.63;;;8.45;;
38779;SDS011;29273;49.962;9.768;2023-12-04T00:18:59;14.35;;;9.55;;
38779;SDS011;29273;49.962;9.768;2023-12-04T00:21:25;16.33;;;10.30;;
38779;SDS011;29273;49.962;9.768;2023-12-04T00:23:50;12.93;;;8.48;;
38779;SDS011;29273;49.962;9.768;2023-12-04T00:26:16;13.40;;;8.90;;
38779;SDS011;29273;49.962;9.768;2023-12-04T00:28:41;14.52;;;9.55;;
38779;SDS011;29273;49.962;9.768;2023-12-04T00:31:07;14.45;;;9.85;;
38779;SDS011;29273;49.962;9.768;2023-12-04T00:33:33;13.02;;;8.82;;
38779;SDS011;29273;49.962;9.768;2023-12-04T00:35:59;13.85;;;9.05;;
38779;SDS011;29273;49.962;9.768;2023-12-04T00:38:24;13.32;;;9.00;;
38779;SDS011;29273;49.962;9.768;2023-12-04T00:40:50;13.10;;;9.07;;
38779;SDS011;29273;49.962;9.768;2023-12-04T00:43:15;14.00;;;9.07;;
38779;SDS011;29273;49.962;9.768;2023-12-04T00:45:41;13.18;;;8.93;;
38779;SDS011;29273;49.962;9.768;2023-12-04T00:48:06;13.90;;;9.05;;
38779;SDS011;29273;49.962;9.768;2023-12-04T00:50:33;13.07;;;8.93;;
38779;SDS011;29273;49.962;9.768;2023-12-04T00:52:58;14.20;;;9.52;;
38779;SDS011;29273;49.962;9.768;2023-12-04T00:55:24;13.15;;;8.63;;
38779;SDS011;29273;49.962;9.768;2023-12-04T00:57:49;12.13;;;8.13;;
38779;SDS011;29273;49.962;9.768;2023-12-04T01:00:15;14.10;;;9.15;;
38779;SDS011;29273;49.962;9.768;2023-12-04T01:02:41;12.55;;;8.77;;
38779;SDS011;29273;49.962;9.768;2023-12-04T01:05:06;12.50;;;8.50;;
38779;SDS011;29273;49.962;9.768;2023-12-04T01:07:32;14.32;;;9.05;;
38779;SDS011;29273;49.962;9.768;2023-12-04T01:09:57;13.18;;;9.18;;
38779;SDS011;29273;49.962;9.768;2023-12-04T01:12:23;12.90;;;8.95;;
38779;SDS011;29273;49.962;9.768;2023-12-04T01:14:48;12.88;;;8.95;;
38779;SDS011;29273;49.962;9.768;2023-12-04T01:17:14;13.30;;;8.95;;
38779;SDS011;29273;49.962;9.768;2023-12-04T01:19:39;13.82;;;9.60;;
38779;SDS011;29273;49.962;9.768;2023-12-04T01:22:05;14.18;;;9.25;;
38779;SDS011;29273;49.962;9.768;2023-12-04T01:24:32;13.10;;;8.95;;
38779;SDS011;29273;49.962;9.768;2023-12-04T01:26:57;12.98;;;8.70;;
38779;SDS011;29273;49.962;9.768;2023-12-04T01:29:23;12.68;;;8.77;;
38779;SDS011;29273;49.962;9.768;2023-12-04T01:31:48;12.90;;;9.13;;
38779;SDS011;29273;49.962;9.768;2023-12-04T01:34:14;13.07;;;8.38;;
38779;SDS011;29273;49.962;9.768;2023-12-04T01:36:40;13.15;;;8.90;;
38779;SDS011;29273;49.962;9.768;2023-12-04T01:39:06;12.93;;;8.57;;
38779;SDS011;29273;49.962;9.768;2023-12-04T01:41:31;13.57;;;8.45;;
38779;SDS011;29273;49.962;9.768;2023-12-04T01:43:57;12.43;;;8.52;;
38779;SDS011;29273;49.962;9.768;2023-12-04T01:46:23;12.75;;;8.85;;
38779;SDS011;29273;49.962;9.768;2023-12-04T01:48:48;13.25;;;8.85;;
38779;SDS011;29273;49.962;9.768;2023-12-04T01:51:14;12.15;;;9.10;;
38779;SDS011;29273;49.962;9.768;2023-12-04T01:53:42;13.52;;;8.80;;
38779;SDS011;29273;49.962;9.768;2023-12-04T01:56:08;12.65;;;8.60;;
38779;SDS011;29273;49.962;9.768;2023-12-04T01:58:34;11.93;;;8.27;;
38779;SDS011;29273;49.962;9.768;2023-12-04T02:00:59;13.82;;;8.30;;
38779;SDS011;29273;49.962;9.768;2023-12-04T02:03:26;12.57;;;8.50;;
38779;SDS011;29273;49.962;9.768;2023-12-04T02:05:51;14.95;;;9.40;;
38779;SDS011;29273;49.962;9.768;2023-12-04T02:08:18;11.90;;;8.32;;
38779;SDS011;29273;49.962;9.768;2023-12-04T02:10:44;13.95;;;9.65;;
38779;SDS011;29273;49.962;9.768;2023-12-04T02:13:09;13.00;;;8.40;;
38779;SDS011;29273;49.962;9.768;2023-12-04T02:15:35;13.50;;;8.73;;
38779;SDS011;29273;49.962;9.768;2023-12-04T02:18:02;13.45;;;8.93;;
38779;SDS011;29273;49.962;9.768;2023-12-04T02:20:34;13.43;;;9.05;;
38779;SDS011;29273;49.962;9.768;2023-12-04T02:23:01;15.57;;;9.95;;
38779;SDS011;29273;49.962;9.768;2023-12-04T02:25:27;14.77;;;9.65;;
38779;SDS011;29273;49.962;9.768;2023-12-04T02:27:54;13.23;;;9.27;;
38779;SDS011;29273;49.962;9.768;2023-12-04T02:30:24;11.43;;;8.57;;
38779;SDS011;29273;49.962;9.768;2023-12-04T02:32:50;13.68;;;8.75;;
38779;SDS011;29273;49.962;9.768;2023-12-04T02:35:20;13.43;;;9.40;;
38779;SDS011;29273;49.962;9.768;2023-12-04T02:37:47;14.10;;;8.98;;
38779;SDS011;29273;49.962;9.768;2023-12-04T02:40:14;11.70;;;8.75;;
38779;SDS011;29273;49.962;9.768;2023-12-04T02:42:40;13.88;;;8.93;;
38779;SDS011;29273;49.962;9.768;2023-12-04T02:45:06;11.98;;;8.43;;
38779;SDS011;29273;49.962;9.768;2023-12-04T02:47:32;11.25;;;8.20;;
38779;SDS011;29273;49.962;9.768;2023-12-04T02:49:57;12.57;;;8.60;;
38779;SDS011;29273;49.962;9.768;2023-12-04T02:52:23;11.05;;;7.43;;
38779;SDS011;29273;49.962;9.768;2023-12-04T02:54:48;12.88;;;8.57;;
38779;SDS011;29273;49.962;9.768;2023-12-04T02:57:14;11.75;;;7.97;;
38779;SDS011;29273;49.962;9.768;2023-12-04T02:59:40;12.75;;;8.82;;
38779;SDS011;29273;49.962;9.768;2023-12-04T03:02:05;14.10;;;9.40;;
38779;SDS011;29273;49.962;9.768;2023-12-04T03:04:31;12.32;;;8.05;;
38779;SDS011;29273;49.962;9.768;2023-12-04T03:06:56;13.88;;;8.70;;
38779;SDS011;29273;49.962;9.768;2023-12-04T03:09:22;12.60;;;8.02;;
38779;SDS011;29273;49.962;9.768;2023-12-04T03:11:48;11.77;;;8.60;;
38779;SDS011;29273;49.962;9.768;2023-12-04T03:14:13;12.30;;;8.45;;
38779;SDS011;29273;49.962;9.768;2023-12-04T03:16:39;12.13;;;8.65;;
38779;SDS011;29273;49.962;9.768;2023-12-04T03:19:05;12.07;;;8.55;;
38779;SDS011;29273;49.962;9.768;2023-12-04T03:21:30;12.05;;;8.27;;
38779;SDS011;29273;49.962;9.768;2023-12-04T03:23:56;12.50;;;8.40;;
38779;SDS011;29273;49.962;9.768;2023-12-04T03:26:21;11.20;;;7.93;;
38779;SDS011;29273;49.962;9.768;2023-12-04T03:28:47;12.07;;;7.90;;
38779;SDS011;29273;49.962;9.768;2023-12-04T03:31:12;13.35;;;8.55;;
38779;SDS011;29273;49.962;9.768;2023-12-04T03:33:38;13.43;;;8.90;;
38779;SDS011;29273;49.962;9.768;2023-12-04T03:36:03;11.20;;;8.13;;
38779;SDS011;29273;49.962;9.768;2023-12-04T03:38:29;12.50;;;8.75;;
38779;SDS011;29273;49.962;9.768;2023-12-04T03:40:55;13.15;;;8.98;;
38779;SDS011;29273;49.962;9.768;2023-12-04T03:43:20;11.70;;;8.60;;
38779;SDS011;29273;49.962;9.768;2023-12-04T03:45:45;12.35;;;8.90;;
38779;SDS011;29273;49.962;9.768;2023-12-04T03:48:11;11.93;;;8.30;;
38779;SDS011;29273;49.962;9.768;2023-12-04T03:50:37;13.13;;;8.93;;
38779;SDS011;29273;49.962;9.768;2023-12-04T03:53:02;10.90;;;7.78;;
38779;SDS011;29273;49.962;9.768;2023-12-04T03:55:28;11.15;;;8.30;;
38779;SDS011;29273;49.962;9.768;2023-12-04T03:57:53;11.90;;;7.90;;
38779;SDS011;29273;49.962;9.768;2023-12-04T04:00:19;11.40;;;8.25;;
38779;SDS011;29273;49.962;9.768;2023-12-04T04:02:45;13.20;;;8.95;;
38779;SDS011;29273;49.962;9.768;2023-12-04T04:05:11;11.38;;;8.07;;
38779;SDS011;29273;49.962;9.768;2023-12-04T04:07:37;12.70;;;8.75;;
38779;SDS011;29273;49.962;9.768;2023-12-04T04:10:02;12.98;;;8.48;;
38779;SDS011;29273;49.962;9.768;2023-12-04T04:12:29;11.43;;;7.93;;
38779;SDS011;29273;49.962;9.768;2023-12-04T04:14:56;11.23;;;8.25;;
38779;SDS011;29273;49.962;9.768;2023-12-04T04:17:22;11.40;;;8.18;;
38779;SDS011;29273;49.962;9.768;2023-12-04T04:19:47;11.02;;;7.95;;
38779;SDS011;29273;49.962;9.768;2023-12-04T04:22:13;11.98;;;8.95;;
38779;SDS011;29273;49.962;9.768;2023-12-04T04:24:38;12.27;;;8.80;;
38779;SDS011;29273;49.962;9.768;2023-12-04T04:27:03;12.45;;;8.90;;
38779;SDS011;29273;49.962;9.768;2023-12-04T04:29:29;11.30;;;8.43;;
38779;SDS011;29273;49.962;9.768;2023-12-04T04:31:55;10.38;;;7.90;;
38779;SDS011;29273;49.962;9.768;2023-12-04T04:34:21;11.13;;;8.13;;
38779;SDS011;29273;49.962;9.768;2023-12-04T04:36:46;11.15;;;8.07;;
38779;SDS011;29273;49.962;9.768;2023-12-04T04:39:12;12.02;;;8.77;;
38779;SDS011;29273;49.962;9.768;2023-12-04T04:41:39;11.57;;;8.25;;
38779;SDS011;29273;49.962;9.768;2023-12-04T04:44:05;12.88;;;8.57;;
38779;SDS011;29273;49.962;9.768;2023-12-04T04:46:31;10.93;;;8.02;;
38779;SDS011;29273;49.962;9.768;2023-12-04T04:48:56;13.13;;;8.30;;
38779;SDS011;29273;49.962;9.768;2023-12-04T04:51:22;11.77;;;8.70;;
38779;SDS011;29273;49.962;9.768;2023-12-04T04:53:47;12.13;;;8.82;;
38779;SDS011;29273;49.962;9.768;2023-12-04T04:56:13;12.40;;;8.55;;
38779;SDS011;29273;49.962;9.768;2023-12-04T04:58:40;12.05;;;8.43;;
38779;SDS011;29273;49.962;9.768;2023-12-04T05:01:05;12.70;;;8.40;;
38779;SDS011;29273;49.962;9.768;2023-12-04T05:03:31;11.32;;;8.00;;
38779;SDS011;29273;49.962;9.768;2023-12-04T05:05:57;11.52;;;8.32;;
38779;SDS011;29273;49.962;9.768;2023-12-04T05:08:22;11.10;;;8.13;;
38779;SDS011;29273;49.962;9.768;2023-12-04T05:10:48;12.13;;;8.60;;
38779;SDS011;29273;49.962;9.768;2023-12-04T05:13:13;9.20;;;7.45;;
38779;SDS011;29273;49.962;9.768;2023-12-04T05:15:39;10.77;;;7.63;;
38779;SDS011;29273;49.962;9.768;2023-12-04T05:18:04;13.05;;;8.90;;
38779;SDS011;29273;49.962;9.768;2023-12-04T05:20:30;11.15;;;8.38;;
38779;SDS011;29273;49.962;9.768;2023-12-04T05:22:56;11.30;;;8.40;;
38779;SDS011;29273;49.962;9.768;2023-12-04T05:25:22;11.73;;;8.00;;
38779;SDS011;29273;49.962;9.768;2023-12-04T05:27:47;10.63;;;7.65;;
38779;SDS011;29273;49.962;9.768;2023-12-04T05:30:13;11.38;;;8.25;;
38779;SDS011;29273;49.962;9.768;2023-12-04T05:32:38;10.52;;;7.88;;
38779;SDS011;29273;49.962;9.768;2023-12-04T05:35:04;11.20;;;7.93;;
38779;SDS011;29273;49.962;9.768;2023-12-04T05:37:30;10.63;;;7.80;;
38779;SDS011;29273;49.962;9.768;2023-12-04T05:39:55;11.60;;;8.50;;
38779;SDS011;29273;49.962;9.768;2023-12-04T05:42:21;10.73;;;7.80;;
38779;SDS011;29273;49.962;9.768;2023-12-04T05:44:46;10.15;;;7.18;;
38779;SDS011;29273;49.962;9.768;2023-12-04T05:47:12;10.50;;;7.90;;
38779;SDS011;29273;49.962;9.768;2023-12-04T05:49:37;9.63;;;7.40;;
38779;SDS011;29273;49.962;9.768;2023-12-04T05:52:03;11.65;;;7.72;;
38779;SDS011;29273;49.962;9.768;2023-12-04T05:54:28;11.35;;;7.88;;
38779;SDS011;29273;49.962;9.768;2023-12-04T05:56:54;10.48;;;7.53;;
38779;SDS011;29273;49.962;9.768;2023-12-04T05:59:19;13.02;;;8.60;;
38779;SDS011;29273;49.962;9.768;2023-12-04T06:01:45;9.93;;;7.40;;
38779;SDS011;29273;49.962;9.768;2023-12-04T06:04:10;10.30;;;7.40;;
38779;SDS011;29273;49.962;9.768;2023-12-04T06:06:36;9.77;;;7.03;;
38779;SDS011;29273;49.962;9.768;2023-12-04T06:09:01;10.48;;;7.22;;
38779;SDS011;29273;49.962;9.768;2023-12-04T06:11:27;11.00;;;8.00;;
38779;SDS011;29273;49.962;9.768;2023-12-04T06:13:52;11.95;;;8.63;;
38779;SDS011;29273;49.962;9.768;2023-12-04T06:16:17;11.32;;;7.93;;
38779;SDS011;29273;49.962;9.768;2023-12-04T06:18:43;10.90;;;7.85;;
38779;SDS011;29273;49.962;9.768;2023-12-04T06:21:08;11.95;;;8.45;;
38779;SDS011;29273;49.962;9.768;2023-12-04T06:23:34;11.40;;;8.23;;
38779;SDS011;29273;49.962;9.768;2023-12-04T06:26:00;9.48;;;7.25;;
38779;SDS011;29273;49.962;9.768;2023-12-04T06:28:26;10.98;;;8.20;;
38779;SDS011;29273;49.962;9.768;2023-12-04T06:30:51;10.05;;;7.47;;
38779;SDS011;29273;49.962;9.768;2023-12-04T06:33:17;10.52;;;7.47;;
38779;SDS011;29273;49.962;9.768;2023-12-04T06:35:43;11.27;;;7.57;;
38779;SDS011;29273;49.962;9.768;2023-12-04T06:38:09;10.35;;;7.60;;
38779;SDS011;29273;49.962;9.768;2023-12-04T06:40:40;10.90;;;7.38;;
38779;SDS011;29273;49.962;9.768;2023-12-04T06:43:05;11.65;;;8.20;;
38779;SDS011;29273;49.962;9.768;2023-12-04T06:45:32;12.93;;;8.02;;
38779;SDS011;29273;49.962;9.768;2023-12-04T06:47:58;11.10;;;7.78;;
38779;SDS011;29273;49.962;9.768;2023-12-04T06:50:25;11.32;;;7.90;;
38779;SDS011;29273;49.962;9.768;2023-12-04T06:52:50;10.00;;;7.80;;
38779;SDS011;29273;49.962;9.768;2023-12-04T06:55:16;11.32;;;8.23;;
38779;SDS011;29273;49.962;9.768;2023-12-04T06:57:41;10.55;;;8.00;;
38779;SDS011;29273;49.962;9.768;2023-12-04T07:00:07;10.25;;;7.38;;
38779;SDS011;29273;49.962;9.768;2023-12-04T07:02:33;11.57;;;7.78;;
38779;SDS011;29273;49.962;9.768;2023-12-04T07:04:59;10.20;;;7.47;;
38779;SDS011;29273;49.962;9.768;2023-12-04T07:07:24;11.27;;;7.68;;
38779;SDS011;29273;49.962;9.768;2023-12-04T07:09:50;10.45;;;7.75;;
38779;SDS011;29273;49.962;9.768;2023-12-04T07:12:15;11.18;;;7.72;;
38779;SDS011;29273;49.962;9.768;2023-12-04T07:14:41;10.52;;;7.53;;
38779;SDS011;29273;49.962;9.768;2023-12-04T07:17:07;11.00;;;7.50;;
38779;SDS011;29273;49.962;9.768;2023-12-04T07:19:32;9.38;;;6.90;;
38779;SDS011;29273;49.962;9.768;2023-12-04T07:21:58;9.90;;;7.38;;
38779;SDS011;29273;49.962;9.768;2023-12-04T07:24:23;10.23;;;7.50;;
38779;SDS011;29273;49.962;9.768;2023-12-04T07:26:49;11.73;;;8.30;;
38779;SDS011;29273;49.962;9.768;2023-12-04T07:29:15;11.43;;;8.68;;
38779;SDS011;29273;49.962;9.768;2023-12-04T07:31:41;10.15;;;7.55;;
38779;SDS011;29273;49.962;9.768;2023-12-04T07:34:07;11.75;;;8.15;;
38779;SDS011;29273;49.962;9.768;2023-12-04T07:36:32;10.60;;;7.32;;
38779;SDS011;29273;49.962;9.768;2023-12-04T07:38:58;10.32;;;7.07;;
38779;SDS011;29273;49.962;9.768;2023-12-04T07:41:23;9.77;;;6.95;;
38779;SDS011;29273;49.962;9.768;2023-12-04T07:43:49;9.20;;;7.00;;
38779;SDS011;29273;49.962;9.768;2023-12-04T07:46:14;9.73;;;7.43;;
38779;SDS011;29273;49.962;9.768;2023-12-04T07:48:40;9.80;;;7.57;;
38779;SDS011;29273;49.962;9.768;2023-12-04T07:51:06;10.00;;;7.00;;
38779;SDS011;29273;49.962;9.768;2023-12-04T07:53:32;10.20;;;7.25;;
38779;SDS011;29273;49.962;9.768;2023-12-04T07:56:00;10.25;;;7.18;;
38779;SDS011;29273;49.962;9.768;2023-12-04T07:58:27;9.45;;;7.18;;
38779;SDS011;29273;49.962;9.768;2023-12-04T08:00:53;10.20;;;7.13;;
38779;SDS011;29273;49.962;9.768;2023-12-04T08:03:18;9.55;;;7.22;;
38779;SDS011;29273;49.962;9.768;2023-12-04T08:05:44;9.30;;;7.00;;
38779;SDS011;29273;49.962;9.768;2023-12-04T08:08:09;8.63;;;6.47;;
38779;SDS011;29273;49.962;9.768;2023-12-04T08:10:35;8.68;;;6.47;;
38779;SDS011;29273;49.962;9.768;2023-12-04T08:13:00;9.57;;;7.45;;
38779;SDS011;29273;49.962;9.768;2023-12-04T08:15:26;8.90;;;6.95;;
38779;SDS011;29273;49.962;9.768;2023-12-04T08:17:51;8.65;;;6.40;;
38779;SDS011;29273;49.962;9.768;2023-12-04T08:20:17;9.30;;;7.13;;
38779;SDS011;29273;49.962;9.768;2023-12-04T08:22:42;9.50;;;6.90;;
38779;SDS011;29273;49.962;9.768;2023-12-04T08:25:10;9.38;;;6.93;;
38779;SDS011;29273;49.962;9.768;2023-12-04T08:27:36;8.90;;;6.32;;
38779;SDS011;29273;49.962;9.768;2023-12-04T08:30:03;10.68;;;7.20;;
38779;SDS011;29273;49.962;9.768;2023-12-04T08:32:29;9.60;;;7.13;;
38779;SDS011;29273;49.962;9.768;2023-12-04T08:34:55;7.90;;;6.35;;
38779;SDS011;29273;49.962;9.768;2023-12-04T08:37:20;9.70;;;7.10;;
38779;SDS011;29273;49.962;9.768;2023-12-04T08:39:46;8.65;;;6.47;;
38779;SDS011;29273;49.962;9.768;2023-12-04T08:42:11;10.65;;;7.28;;
38779;SDS011;29273;49.962;9.768;2023-12-04T08:44:37;8.95;;;6.88;;
38779;SDS011;29273;49.962;9.768;2023-12-04T08:47:03;10.15;;;7.32;;
38779;SDS011;29273;49.962;9.768;2023-12-04T08:49:29;8.60;;;6.32;;
38779;SDS011;29273;49.962;9.768;2023-12-04T08:51:54;8.63;;;6.70;;
38779;SDS011;29273;49.962;9.768;2023-12-04T08:54:20;8.15;;;6.60;;
38779;SDS011;29273;49.962;9.768;2023-12-04T08:56:45;9.70;;;6.90;;
38779;SDS011;29273;49.962;9.768;2023-12-04T08:59:11;9.38;;;6.55;;
38779;SDS011;29273;49.962;9.768;2023-12-04T09:01:38;9.75;;;6.47;;
38779;SDS011;29273;49.962;9.768;2023-12-04T09:04:04;8.73;;;6.47;;
38779;SDS011;29273;49.962;9.768;2023-12-04T09:06:30;10.52;;;7.35;;
38779;SDS011;29273;49.962;9.768;2023-12-04T09:08:55;9.15;;;6.93;;
38779;SDS011;29273;49.962;9.768;2023-12-04T09:11:21;8.23;;;6.68;;
38779;SDS011;29273;49.962;9.768;2023-12-04T09:13:46;9.07;;;6.70;;
38779;SDS011;29273;49.962;9.768;2023-12-04T09:16:12;9.52;;;6.82;;
38779;SDS011;29273;49.962;9.768;2023-12-04T09:18:39;8.75;;;6.90;;
38779;SDS011;29273;49.962;9.768;2023-12-04T09:21:04;8.95;;;6.55;;
38779;SDS011;29273;49.962;9.768;2023-12-04T09:23:30;9.85;;;7.10;;
38779;SDS011;29273;49.962;9.768;2023-12-04T09:25:55;8.75;;;6.75;;
38779;SDS011;29273;49.962;9.768;2023-12-04T09:28:21;8.10;;;6.18;;
38779;SDS011;29273;49.962;9.768;2023-12-04T09:30:46;8.43;;;6.25;;
38779;SDS011;29273;49.962;9.768;2023-12-04T09:33:12;8.85;;;6.63;;
38779;SDS011;29273;49.962;9.768;2023-12-04T09:35:38;8.65;;;6.45;;
38779;SDS011;29273;49.962;9.768;2023-12-04T09:38:03;9.10;;;6.40;;
38779;SDS011;29273;49.962;9.768;2023-12-04T09:40:28;7.68;;;5.93;;
38779;SDS011;29273;49.962;9.768;2023-12-04T09:42:54;9.13;;;6.68;;
38779;SDS011;29273;49.962;9.768;2023-12-04T09:45:20;8.40;;;6.22;;
38779;SDS011;29273;49.962;9.768;2023-12-04T09:47:48;8.32;;;6.35;;
38779;SDS011;29273;49.962;9.768;2023-12-04T09:50:14;8.00;;;6.32;;
38779;SDS011;29273;49.962;9.768;2023-12-04T09:52:47;8.13;;;6.25;;
38779;SDS011;29273;49.962;9.768;2023-12-04T09:55:15;8.48;;;6.43;;
38779;SDS011;29273;49.962;9.768;2023-12-04T09:57:42;9.15;;;6.55;;
38779;SDS011;29273;49.962;9.768;2023-12-04T10:00:09;7.95;;;6.15;;
38779;SDS011;29273;49.962;9.768;2023-12-04T10:02:38;7.30;;;5.88;;
38779;SDS011;29273;49.962;9.768;2023-12-04T10:05:05;7.25;;;5.90;;
38779;SDS011;29273;49.962;9.768;2023-12-04T10:07:31;8.57;;;6.40;;
38779;SDS011;29273;49.962;9.768;2023-12-04T10:09:57;8.15;;;6.30;;
38779;SDS011;29273;49.962;9.768;2023-12-04T10:12:22;7.47;;;6.20;;
38779;SDS011;29273;49.962;9.768;2023-12-04T10:17:37;8.18;;;6.53;;
38779;SDS011;29273;49.962;9.768;2023-12-04T10:20:08;9.05;;;6.70;;
38779;SDS011;29273;49.962;9.768;2023-12-04T10:25:21;7.40;;;5.63;;
38779;SDS011;29273;49.962;9.768;2023-12-04T10:27:50;8.13;;;5.85;;
38779;SDS011;29273;49.962;9.768;2023-12-04T10:30:27;7.80;;;6.05;;
38779;SDS011;29273;49.962;9.768;2023-12-04T10:32:57;9.02;;;5.97;;
38779;SDS011;29273;49.962;9.768;2023-12-04T10:35:28;7.72;;;6.20;;
38779;SDS011;29273;49.962;9.768;2023-12-04T10:37:57;7.60;;;5.97;;
38779;SDS011;29273;49.962;9.768;2023-12-04T10:40:25;7.22;;;5.35;;
38779;SDS011;29273;49.962;9.768;2023-12-04T10:42:51;7.13;;;5.53;;
38779;SDS011;29273;49.962;9.768;2023-12-04T10:45:17;7.50;;;5.80;;
38779;SDS011;29273;49.962;9.768;2023-12-04T10:47:42;8.00;;;5.80;;
38779;SDS011;29273;49.962;9.768;2023-12-04T10:50:10;7.07;;;5.63;;
38779;SDS011;29273;49.962;9.768;2023-12-04T10:52:37;7.95;;;6.15;;
38779;SDS011;29273;49.962;9.768;2023-12-04T10:55:05;7.32;;;5.57;;
38779;SDS011;29273;49.962;9.768;2023-12-04T10:57:34;6.88;;;5.30;;
38779;SDS011;29273;49.962;9.768;2023-12-04T11:00:04;7.82;;;5.88;;
38779;SDS011;29273;49.962;9.768;2023-12-04T11:02:33;7.70;;;5.22;;
38779;SDS011;29273;49.962;9.768;2023-12-04T11:05:08;6.88;;;5.30;;
38779;SDS011;29273;49.962;9.768;2023-12-04T11:07:49;7.50;;;5.63;;
38779;SDS011;29273;49.962;9.768;2023-12-04T11:10:19;7.28;;;5.30;;
38779;SDS011;29273;49.962;9.768;2023-12-04T11:12:47;6.80;;;5.30;;
38779;SDS011;29273;49.962;9.768;2023-12-04T11:15:21;6.75;;;5.28;;
38779;SDS011;29273;49.962;9.768;2023-12-04T11:17:51;6.57;;;5.25;;
38779;SDS011;29273;49.962;9.768;2023-12-04T11:20:24;7.28;;;5.07;;
38779;SDS011;29273;49.962;9.768;2023-12-04T11:22:52;7.57;;;5.88;;
38779;SDS011;29273;49.962;9.768;2023-12-04T11:25:19;7.20;;;5.55;;
38779;SDS011;29273;49.962;9.768;2023-12-04T11:27:48;7.07;;;5.28;;
38779;SDS011;29273;49.962;9.768;2023-12-04T11:30:14;8.35;;;5.90;;
38779;SDS011;29273;49.962;9.768;2023-12-04T11:32:44;7.60;;;5.95;;
38779;SDS011;29273;49.962;9.768;2023-12-04T11:35:17;7.95;;;5.90;;
38779;SDS011;29273;49.962;9.768;2023-12-04T11:37:46;7.68;;;5.60;;
38779;SDS011;29273;49.962;9.768;2023-12-04T11:40:15;7.00;;;5.75;;
38779;SDS011;29273;49.962;9.768;2023-12-04T11:42:41;7.38;;;5.90;;
38779;SDS011;29273;49.962;9.768;2023-12-04T11:45:07;9.02;;;6.50;;
38779;SDS011;29273;49.962;9.768;2023-12-04T11:47:49;7.60;;;5.63;;
38779;SDS011;29273;49.962;9.768;2023-12-04T11:50:16;7.75;;;5.45;;
38779;SDS011;29273;49.962;9.768;2023-12-04T11:52:44;7.35;;;5.68;;
38779;SDS011;29273;49.962;9.768;2023-12-04T11:55:09;7.63;;;5.95;;
38779;SDS011;29273;49.962;9.768;2023-12-04T11:57:36;7.40;;;5.60;;
38779;SDS011;29273;49.962;9.768;2023-12-04T12:05:18;6.90;;;5.35;;
38779;SDS011;29273;49.962;9.768;2023-12-04T12:07:45;10.50;;;5.78;;
38779;SDS011;29273;49.962;9.768;2023-12-04T12:10:10;6.90;;;5.20;;
38779;SDS011;29273;49.962;9.768;2023-12-04T12:12:38;6.60;;;5.45;;
38779;SDS011;29273;49.962;9.768;2023-12-04T12:15:05;7.05;;;5.22;;
38779;SDS011;29273;49.962;9.768;2023-12-04T12:17:34;6.53;;;5.18;;
38779;SDS011;29273;49.962;9.768;2023-12-04T12:19:59;6.70;;;5.32;;
38779;SDS011;29273;49.962;9.768;2023-12-04T12:22:25;8.10;;;5.85;;
38779;SDS011;29273;49.962;9.768;2023-12-04T12:24:51;6.40;;;5.47;;
38779;SDS011;29273;49.962;9.768;2023-12-04T12:27:17;6.63;;;5.57;;
38779;SDS011;29273;49.962;9.768;2023-12-04T12:29:42;8.23;;;6.45;;
38779;SDS011;29273;49.962;9.768;2023-12-04T12:32:08;6.93;;;5.32;;
38779;SDS011;29273;49.962;9.768;2023-12-04T12:34:33;6.43;;;5.07;;
38779;SDS011;29273;49.962;9.768;2023-12-04T12:37:03;6.50;;;5.32;;
38779;SDS011;29273;49.962;9.768;2023-12-04T12:39:31;7.50;;;5.90;;
38779;SDS011;29273;49.962;9.768;2023-12-04T12:41:57;7.13;;;5.53;;
38779;SDS011;29273;49.962;9.768;2023-12-04T12:44:22;6.78;;;5.60;;
38779;SDS011;29273;49.962;9.768;2023-12-04T12:46:48;7.22;;;5.68;;
38779;SDS011;29273;49.962;9.768;2023-12-04T12:49:20;6.65;;;4.68;;
38779;SDS011;29273;49.962;9.768;2023-12-04T12:51:46;7.43;;;5.53;;
38779;SDS011;29273;49.962;9.768;2023-12-04T12:54:12;8.48;;;5.63;;
38779;SDS011;29273;49.962;9.768;2023-12-04T12:56:38;6.93;;;5.47;;
38779;SDS011;29273;49.962;9.768;2023-12-04T12:59:04;6.70;;;5.13;;
38779;SDS011;29273;49.962;9.768;2023-12-04T13:01:31;7.13;;;4.95;;
38779;SDS011;29273;49.962;9.768;2023-12-04T13:03:57;6.28;;;5.05;;
38779;SDS011;29273;49.962;9.768;2023-12-04T13:06:23;6.35;;;4.57;;
38779;SDS011;29273;49.962;9.768;2023-12-04T13:08:48;5.80;;;4.43;;
38779;SDS011;29273;49.962;9.768;2023-12-04T13:11:14;7.35;;;5.40;;
38779;SDS011;29273;49.962;9.768;2023-12-04T13:13:43;5.90;;;4.93;;
38779;SDS011;29273;49.962;9.768;2023-12-04T13:16:09;6.22;;;4.90;;
38779;SDS011;29273;49.962;9.768;2023-12-04T13:18:35;5.38;;;4.57;;
38779;SDS011;29273;49.962;9.768;2023-12-04T13:21:01;5.85;;;4.68;;
38779;SDS011;29273;49.962;9.768;2023-12-04T13:23:27;5.05;;;4.50;;
38779;SDS011;29273;49.962;9.768;2023-12-04T13:25:52;5.22;;;4.20;;
38779;SDS011;29273;49.962;9.768;2023-12-04T13:28:20;6.22;;;4.75;;
38779;SDS011;29273;49.962;9.768;2023-12-04T13:30:46;6.60;;;4.63;;
38779;SDS011;29273;49.962;9.768;2023-12-04T13:33:11;6.30;;;4.72;;
38779;SDS011;29273;49.962;9.768;2023-12-04T13:35:37;6.25;;;4.57;;
38779;SDS011;29273;49.962;9.768;2023-12-04T13:38:02;6.03;;;4.70;;
38779;SDS011;29273;49.962;9.768;2023-12-04T13:40:28;7.05;;;5.20;;
38779;SDS011;29273;49.962;9.768;2023-12-04T13:42:57;5.63;;;4.25;;
38779;SDS011;29273;49.962;9.768;2023-12-04T13:45:42;5.85;;;4.70;;
38779;SDS011;29273;49.962;9.768;2023-12-04T13:48:08;5.47;;;4.50;;
38779;SDS011;29273;49.962;9.768;2023-12-04T13:50:33;5.78;;;4.32;;
38779;SDS011;29273;49.962;9.768;2023-12-04T13:52:59;5.22;;;4.35;;
38779;SDS011;29273;49.962;9.768;2023-12-04T13:55:25;5.15;;;4.43;;
38779;SDS011;29273;49.962;9.768;2023-12-04T13:58:17;5.50;;;4.40;;
38779;SDS011;29273;49.962;9.768;2023-12-04T14:01:01;9.13;;;5.05;;
38779;SDS011;29273;49.962;9.768;2023-12-04T14:03:37;5.03;;;3.75;;
38779;SDS011;29273;49.962;9.768;2023-12-04T14:06:02;6.28;;;4.32;;
38779;SDS011;29273;49.962;9.768;2023-12-04T14:08:28;6.00;;;4.70;;
38779;SDS011;29273;49.962;9.768;2023-12-04T14:10:53;5.80;;;5.15;;
38779;SDS011;29273;49.962;9.768;2023-12-04T14:13:19;6.45;;;5.15;;
38779;SDS011;29273;49.962;9.768;2023-12-04T14:15:45;6.45;;;4.80;;
38779;SDS011;29273;49.962;9.768;2023-12-04T14:18:11;5.55;;;4.50;;
38779;SDS011;29273;49.962;9.768;2023-12-04T14:20:37;5.22;;;4.25;;
38779;SDS011;29273;49.962;9.768;2023-12-04T14:23:02;5.70;;;4.53;;
38779;SDS011;29273;49.962;9.768;2023-12-04T14:25:29;6.70;;;5.00;;
38779;SDS011;29273;49.962;9.768;2023-12-04T14:27:54;5.43;;;4.70;;
38779;SDS011;29273;49.962;9.768;2023-12-04T14:30:20;5.22;;;4.25;;
38779;SDS011;29273;49.962;9.768;2023-12-04T14:32:45;5.95;;;4.45;;
38779;SDS011;29273;49.962;9.768;2023-12-04T14:35:11;6.55;;;4.60;;
38779;SDS011;29273;49.962;9.768;2023-12-04T14:37:38;4.60;;;3.95;;
38779;SDS011;29273;49.962;9.768;2023-12-04T14:40:04;5.90;;;4.70;;
38779;SDS011;29273;49.962;9.768;2023-12-04T14:42:30;6.05;;;4.75;;
38779;SDS011;29273;49.962;9.768;2023-12-04T14:44:56;6.18;;;4.85;;
38779;SDS011;29273;49.962;9.768;2023-12-04T14:47:22;6.13;;;4.65;;